sensor_id;sensor_type;location;lat;lon;timestamp;temperature;humidity
53520;DHT22;39397;53.204;5.778;2022-07-29T00:02:14;15.00;99.90
53520;DHT22;39397;53.204;5.778;2022-07-29T00:04:40;15.00;99.90
53520;DHT22;39397;53.204;5.778;2022-07-29T00:07:05;15.00;99.90
53520;DHT22;39397;53.204;5.778;2022-07-29T00:09:31;15.00;99.90
53520;DHT22;39397;53.204;5.778;2022-07-29T00:12:00;15.10;99.90
53520;DHT22;39397;53.204;5.778;2022-07-29T00:14:27;15.10;99.90
53520;DHT22;39397;53.204;5.778;2022-07-29T00:16:53;15.00;99.90
53520;DHT22;39397;53.204;5.778;2022-07-29T00:19:18;15.10;99.90
53520;DHT22;39397;53.204;5.778;2022-07-29T00:21:44;15.00;99.90
53520;DHT22;39397;53.204;5.778;2022-07-29T00:24:10;15.10;99.90
53520;DHT22;39397;53.204;5.778;2022-07-29T00:26:36;15.10;99.90
53520;DHT22;39397;53.204;5.778;2022-07-29T00:29:03;15.20;99.90
53520;DHT22;39397;53.204;5.778;2022-07-29T00:31:29;15.10;99.90
53520;DHT22;39397;53.204;5.778;2022-07-29T00:33:55;15.10;99.90
53520;DHT22;39397;53.204;5.778;2022-07-29T00:36:21;15.10;99.90
53520;DHT22;39397;53.204;5.778;2022-07-29T00:38:51;15.10;99.90
53520;DHT22;39397;53.204;5.778;2022-07-29T00:41:17;15.10;99.90
53520;DHT22;39397;53.204;5.778;2022-07-29T00:43:43;15.10;99.90
53520;DHT22;39397;53.204;5.778;2022-07-29T00:46:09;15.20;99.90
53520;DHT22;39397;53.204;5.778;2022-07-29T00:48:35;15.30;99.90
53520;DHT22;39397;53.204;5.778;2022-07-29T00:51:02;15.40;99.90
53520;DHT22;39397;53.204;5.778;2022-07-29T00:53:29;15.20;99.90
53520;DHT22;39397;53.204;5.778;2022-07-29T00:55:56;15.20;99.90
53520;DHT22;39397;53.204;5.778;2022-07-29T00:58:23;15.20;99.90
53520;DHT22;39397;53.204;5.778;2022-07-29T01:00:49;15.20;99.90
53520;DHT22;39397;53.204;5.778;2022-07-29T01:03:14;15.20;99.90
53520;DHT22;39397;53.204;5.778;2022-07-29T01:05:42;15.20;99.90
53520;DHT22;39397;53.204;5.778;2022-07-29T01:08:08;15.20;99.90
53520;DHT22;39397;53.204;5.778;2022-07-29T01:10:37;15.20;99.90
53520;DHT22;39397;53.204;5.778;2022-07-29T01:13:03;15.20;99.90
53520;DHT22;39397;53.204;5.778;2022-07-29T01:15:29;15.30;99.90
53520;DHT22;39397;53.204;5.778;2022-07-29T01:18:21;15.20;99.90
53520;DHT22;39397;53.204;5.778;2022-07-29T01:21:23;15.30;99.90
53520;DHT22;39397;53.204;5.778;2022-07-29T01:30:11;15.30;99.90
53520;DHT22;39397;53.204;5.778;2022-07-29T01:32:38;15.30;99.90
53520;DHT22;39397;53.204;5.778;2022-07-29T01:35:10;15.40;99.90
53520;DHT22;39397;53.204;5.778;2022-07-29T01:37:49;15.30;99.90
53520;DHT22;39397;53.204;5.778;2022-07-29T01:40:32;15.30;99.90
53520;DHT22;39397;53.204;5.778;2022-07-29T01:43:01;15.40;99.90
53520;DHT22;39397;53.204;5.778;2022-07-29T01:45:38;15.40;99.90
53520;DHT22;39397;53.204;5.778;2022-07-29T01:48:27;15.40;99.90
53520;DHT22;39397;53.204;5.778;2022-07-29T01:51:51;15.20;99.90
53520;DHT22;39397;53.204;5.778;2022-07-29T01:54:13;15.30;99.90
53520;DHT22;39397;53.204;5.778;2022-07-29T01:56:40;15.30;99.90
53520;DHT22;39397;53.204;5.778;2022-07-29T01:59:08;15.40;99.90
53520;DHT22;39397;53.204;5.778;2022-07-29T02:01:36;15.30;99.90
53520;DHT22;39397;53.204;5.778;2022-07-29T02:04:03;15.40;99.90
53520;DHT22;39397;53.204;5.778;2022-07-29T02:06:32;15.30;99.90
53520;DHT22;39397;53.204;5.778;2022-07-29T02:08:59;15.30;99.90
53520;DHT22;39397;53.204;5.778;2022-07-29T02:11:26;15.30;99.90
53520;DHT22;39397;53.204;5.778;2022-07-29T02:13:54;15.50;99.90
53520;DHT22;39397;53.204;5.778;2022-07-29T02:16:23;15.30;99.90
53520;DHT22;39397;53.204;5.778;2022-07-29T02:18:52;15.30;99.90
53520;DHT22;39397;53.204;5.778;2022-07-29T02:21:23;15.40;99.90
53520;DHT22;39397;53.204;5.778;2022-07-29T02:23:51;15.30;99.90
53520;DHT22;39397;53.204;5.778;2022-07-29T02:26:20;15.40;99.90
53520;DHT22;39397;53.204;5.778;2022-07-29T02:28:48;15.30;99.90
53520;DHT22;39397;53.204;5.778;2022-07-29T02:31:14;15.40;99.90
53520;DHT22;39397;53.204;5.778;2022-07-29T02:33:42;15.30;99.90
53520;DHT22;39397;53.204;5.778;2022-07-29T02:36:09;15.40;99.90
53520;DHT22;39397;53.204;5.778;2022-07-29T02:38:35;15.50;99.90
53520;DHT22;39397;53.204;5.778;2022-07-29T02:41:50;15.40;99.90
53520;DHT22;39397;53.204;5.778;2022-07-29T02:44:21;15.50;99.90
53520;DHT22;39397;53.204;5.778;2022-07-29T02:47:16;15.40;99.90
53520;DHT22;39397;53.204;5.778;2022-07-29T02:54:53;15.40;99.90
53520;DHT22;39397;53.204;5.778;2022-07-29T02:59:59;15.50;99.90
53520;DHT22;39397;53.204;5.778;2022-07-29T03:02:35;15.50;99.90
53520;DHT22;39397;53.204;5.778;2022-07-29T03:05:03;15.40;99.90
53520;DHT22;39397;53.204;5.778;2022-07-29T03:07:29;15.40;99.90
53520;DHT22;39397;53.204;5.778;2022-07-29T03:09:56;15.40;99.90
53520;DHT22;39397;53.204;5.778;2022-07-29T03:12:22;15.50;99.90
53520;DHT22;39397;53.204;5.778;2022-07-29T03:14:49;15.40;99.90
53520;DHT22;39397;53.204;5.778;2022-07-29T03:17:15;15.40;99.90
53520;DHT22;39397;53.204;5.778;2022-07-29T03:19:42;15.40;99.90
53520;DHT22;39397;53.204;5.778;2022-07-29T03:22:08;15.30;99.90
53520;DHT22;39397;53.204;5.778;2022-07-29T03:24:35;16.40;99.90
53520;DHT22;39397;53.204;5.778;2022-07-29T03:27:03;15.40;99.90
53520;DHT22;39397;53.204;5.778;2022-07-29T03:29:29;15.40;99.90
53520;DHT22;39397;53.204;5.778;2022-07-29T03:31:55;15.30;99.90
53520;DHT22;39397;53.204;5.778;2022-07-29T03:34:20;15.40;99.90
53520;DHT22;39397;53.204;5.778;2022-07-29T03:36:47;15.30;99.90
53520;DHT22;39397;53.204;5.778;2022-07-29T03:39:18;15.30;99.90
53520;DHT22;39397;53.204;5.778;2022-07-29T03:41:48;15.40;99.90
53520;DHT22;39397;53.204;5.778;2022-07-29T03:44:16;15.40;99.90
53520;DHT22;39397;53.204;5.778;2022-07-29T03:46:44;15.30;99.90
53520;DHT22;39397;53.204;5.778;2022-07-29T03:49:11;15.60;99.90
53520;DHT22;39397;53.204;5.778;2022-07-29T03:51:39;15.30;99.90
53520;DHT22;39397;53.204;5.778;2022-07-29T03:54:05;15.30;99.90
53520;DHT22;39397;53.204;5.778;2022-07-29T03:56:34;15.30;99.90
53520;DHT22;39397;53.204;5.778;2022-07-29T03:59:02;15.30;99.90
53520;DHT22;39397;53.204;5.778;2022-07-29T04:01:28;15.30;99.90
53520;DHT22;39397;53.204;5.778;2022-07-29T04:03:55;15.40;99.90
53520;DHT22;39397;53.204;5.778;2022-07-29T04:06:21;15.30;99.90
53520;DHT22;39397;53.204;5.778;2022-07-29T04:08:46;15.30;99.90
53520;DHT22;39397;53.204;5.778;2022-07-29T04:11:12;15.30;99.90
53520;DHT22;39397;53.204;5.778;2022-07-29T04:13:38;15.40;99.90
53520;DHT22;39397;53.204;5.778;2022-07-29T04:16:04;15.40;99.90
53520;DHT22;39397;53.204;5.778;2022-07-29T04:18:30;15.30;99.90
53520;DHT22;39397;53.204;5.778;2022-07-29T04:20:55;15.30;99.90
53520;DHT22;39397;53.204;5.778;2022-07-29T04:23:21;15.40;99.90
53520;DHT22;39397;53.204;5.778;2022-07-29T04:25:47;15.40;99.90
53520;DHT22;39397;53.204;5.778;2022-07-29T04:28:13;15.40;99.90
53520;DHT22;39397;53.204;5.778;2022-07-29T04:30:39;15.50;99.90
53520;DHT22;39397;53.204;5.778;2022-07-29T04:33:07;15.50;99.90
53520;DHT22;39397;53.204;5.778;2022-07-29T04:35:36;15.60;99.90
53520;DHT22;39397;53.204;5.778;2022-07-29T04:38:03;15.50;99.90
53520;DHT22;39397;53.204;5.778;2022-07-29T04:40:29;15.50;99.90
53520;DHT22;39397;53.204;5.778;2022-07-29T04:42:55;15.50;99.90
53520;DHT22;39397;53.204;5.778;2022-07-29T04:45:21;15.50;99.90
53520;DHT22;39397;53.204;5.778;2022-07-29T04:47:47;15.50;99.90
53520;DHT22;39397;53.204;5.778;2022-07-29T04:50:12;15.60;99.90
53520;DHT22;39397;53.204;5.778;2022-07-29T04:52:38;15.60;99.90
53520;DHT22;39397;53.204;5.778;2022-07-29T04:55:05;15.70;99.90
53520;DHT22;39397;53.204;5.778;2022-07-29T04:57:30;15.70;99.90
53520;DHT22;39397;53.204;5.778;2022-07-29T04:59:56;15.70;99.90
53520;DHT22;39397;53.204;5.778;2022-07-29T05:02:22;15.70;99.90
53520;DHT22;39397;53.204;5.778;2022-07-29T05:04:48;15.70;99.90
53520;DHT22;39397;53.204;5.778;2022-07-29T05:07:14;15.70;99.90
53520;DHT22;39397;53.204;5.778;2022-07-29T05:09:40;15.70;99.90
53520;DHT22;39397;53.204;5.778;2022-07-29T05:12:06;15.70;99.90
53520;DHT22;39397;53.204;5.778;2022-07-29T05:14:32;15.80;99.90
53520;DHT22;39397;53.204;5.778;2022-07-29T05:16:58;15.80;99.90
53520;DHT22;39397;53.204;5.778;2022-07-29T05:19:23;15.80;99.90
53520;DHT22;39397;53.204;5.778;2022-07-29T05:21:49;15.80;99.90
53520;DHT22;39397;53.204;5.778;2022-07-29T05:24:15;15.80;99.90
53520;DHT22;39397;53.204;5.778;2022-07-29T05:26:41;15.90;99.90
53520;DHT22;39397;53.204;5.778;2022-07-29T05:29:07;16.00;99.90
53520;DHT22;39397;53.204;5.778;2022-07-29T05:31:33;16.00;99.90
53520;DHT22;39397;53.204;5.778;2022-07-29T05:33:59;16.00;99.90
53520;DHT22;39397;53.204;5.778;2022-07-29T05:36:26;16.00;99.90
53520;DHT22;39397;53.204;5.778;2022-07-29T05:38:51;16.10;99.90
53520;DHT22;39397;53.204;5.778;2022-07-29T05:41:20;16.20;99.90
53520;DHT22;39397;53.204;5.778;2022-07-29T05:43:46;16.20;99.90
53520;DHT22;39397;53.204;5.778;2022-07-29T05:46:12;16.20;99.90
53520;DHT22;39397;53.204;5.778;2022-07-29T05:48:39;16.30;99.90
53520;DHT22;39397;53.204;5.778;2022-07-29T05:51:05;16.40;99.90
53520;DHT22;39397;53.204;5.778;2022-07-29T05:53:30;16.40;99.90
53520;DHT22;39397;53.204;5.778;2022-07-29T05:55:56;16.40;99.90
53520;DHT22;39397;53.204;5.778;2022-07-29T05:58:22;16.50;99.90
53520;DHT22;39397;53.204;5.778;2022-07-29T06:00:47;16.50;99.90
53520;DHT22;39397;53.204;5.778;2022-07-29T06:03:13;16.70;99.90
53520;DHT22;39397;53.204;5.778;2022-07-29T06:05:39;16.70;99.90
53520;DHT22;39397;53.204;5.778;2022-07-29T06:08:05;16.50;99.90
53520;DHT22;39397;53.204;5.778;2022-07-29T06:10:36;16.70;99.90
53520;DHT22;39397;53.204;5.778;2022-07-29T06:13:02;16.90;99.90
53520;DHT22;39397;53.204;5.778;2022-07-29T06:15:28;17.90;99.90
53520;DHT22;39397;53.204;5.778;2022-07-29T06:17:53;17.10;99.90
53520;DHT22;39397;53.204;5.778;2022-07-29T06:20:19;17.30;99.90
53520;DHT22;39397;53.204;5.778;2022-07-29T06:22:48;17.50;99.90
53520;DHT22;39397;53.204;5.778;2022-07-29T06:25:13;17.60;99.90
53520;DHT22;39397;53.204;5.778;2022-07-29T06:27:39;17.70;99.90
53520;DHT22;39397;53.204;5.778;2022-07-29T06:30:05;20.10;99.90
53520;DHT22;39397;53.204;5.778;2022-07-29T06:32:33;18.00;99.90
53520;DHT22;39397;53.204;5.778;2022-07-29T06:34:59;18.00;99.90
53520;DHT22;39397;53.204;5.778;2022-07-29T06:37:24;18.20;99.90
53520;DHT22;39397;53.204;5.778;2022-07-29T06:39:50;18.40;99.90
53520;DHT22;39397;53.204;5.778;2022-07-29T06:42:36;18.30;99.90
53520;DHT22;39397;53.204;5.778;2022-07-29T06:45:01;18.40;99.90
53520;DHT22;39397;53.204;5.778;2022-07-29T06:47:27;18.40;99.90
53520;DHT22;39397;53.204;5.778;2022-07-29T06:49:53;18.50;99.90
53520;DHT22;39397;53.204;5.778;2022-07-29T06:52:19;18.40;99.90
53520;DHT22;39397;53.204;5.778;2022-07-29T06:54:44;18.60;99.90
53520;DHT22;39397;53.204;5.778;2022-07-29T06:57:13;18.60;99.90
53520;DHT22;39397;53.204;5.778;2022-07-29T06:59:39;18.60;99.90
53520;DHT22;39397;53.204;5.778;2022-07-29T07:02:05;18.60;99.90
53520;DHT22;39397;53.204;5.778;2022-07-29T07:04:31;18.70;99.90
53520;DHT22;39397;53.204;5.778;2022-07-29T07:06:57;18.80;99.90
53520;DHT22;39397;53.204;5.778;2022-07-29T07:09:23;18.90;99.90
53520;DHT22;39397;53.204;5.778;2022-07-29T07:11:48;19.10;99.90
53520;DHT22;39397;53.204;5.778;2022-07-29T07:14:14;19.10;99.90
53520;DHT22;39397;53.204;5.778;2022-07-29T07:16:40;19.20;99.90
53520;DHT22;39397;53.204;5.778;2022-07-29T07:19:05;19.30;99.90
53520;DHT22;39397;53.204;5.778;2022-07-29T07:21:32;19.40;99.90
53520;DHT22;39397;53.204;5.778;2022-07-29T07:23:59;19.50;99.90
53520;DHT22;39397;53.204;5.778;2022-07-29T07:26:25;19.50;99.90
53520;DHT22;39397;53.204;5.778;2022-07-29T07:28:51;19.60;99.90
53520;DHT22;39397;53.204;5.778;2022-07-29T07:31:17;19.60;99.90
53520;DHT22;39397;53.204;5.778;2022-07-29T07:33:42;19.70;99.90
53520;DHT22;39397;53.204;5.778;2022-07-29T07:36:09;19.70;99.90
53520;DHT22;39397;53.204;5.778;2022-07-29T07:38:35;19.80;99.90
53520;DHT22;39397;53.204;5.778;2022-07-29T07:41:01;19.80;99.90
53520;DHT22;39397;53.204;5.778;2022-07-29T07:43:26;19.90;99.90
53520;DHT22;39397;53.204;5.778;2022-07-29T07:45:54;19.70;99.90
53520;DHT22;39397;53.204;5.778;2022-07-29T07:48:19;19.80;99.90
53520;DHT22;39397;53.204;5.778;2022-07-29T07:50:45;19.80;99.90
53520;DHT22;39397;53.204;5.778;2022-07-29T07:53:11;19.80;99.90
53520;DHT22;39397;53.204;5.778;2022-07-29T07:55:43;19.80;99.90
53520;DHT22;39397;53.204;5.778;2022-07-29T07:58:09;19.10;99.90
53520;DHT22;39397;53.204;5.778;2022-07-29T08:00:35;19.80;99.90
53520;DHT22;39397;53.204;5.778;2022-07-29T08:03:01;19.80;99.90
53520;DHT22;39397;53.204;5.778;2022-07-29T08:05:26;19.70;99.90
53520;DHT22;39397;53.204;5.778;2022-07-29T08:07:52;19.80;99.90
53520;DHT22;39397;53.204;5.778;2022-07-29T08:10:19;19.80;99.90
53520;DHT22;39397;53.204;5.778;2022-07-29T08:13:07;19.90;99.90
53520;DHT22;39397;53.204;5.778;2022-07-29T08:15:33;19.90;99.90
53520;DHT22;39397;53.204;5.778;2022-07-29T08:17:59;19.90;99.90
53520;DHT22;39397;53.204;5.778;2022-07-29T08:20:25;20.00;99.90
53520;DHT22;39397;53.204;5.778;2022-07-29T08:22:51;19.90;99.90
53520;DHT22;39397;53.204;5.778;2022-07-29T08:25:18;20.10;99.90
53520;DHT22;39397;53.204;5.778;2022-07-29T08:27:46;20.30;99.90
53520;DHT22;39397;53.204;5.778;2022-07-29T08:30:12;20.30;99.90
53520;DHT22;39397;53.204;5.778;2022-07-29T08:32:38;20.60;99.90
53520;DHT22;39397;53.204;5.778;2022-07-29T08:35:04;19.00;99.90
53520;DHT22;39397;53.204;5.778;2022-07-29T08:37:30;20.70;99.90
53520;DHT22;39397;53.204;5.778;2022-07-29T08:39:55;20.90;99.90
53520;DHT22;39397;53.204;5.778;2022-07-29T08:42:21;20.70;99.90
53520;DHT22;39397;53.204;5.778;2022-07-29T08:44:47;21.10;99.90
53520;DHT22;39397;53.204;5.778;2022-07-29T08:47:16;21.30;99.90
53520;DHT22;39397;53.204;5.778;2022-07-29T08:49:42;21.30;99.90
53520;DHT22;39397;53.204;5.778;2022-07-29T08:52:11;21.40;99.90
53520;DHT22;39397;53.204;5.778;2022-07-29T08:54:38;21.50;99.90
53520;DHT22;39397;53.204;5.778;2022-07-29T08:57:04;21.50;99.90
53520;DHT22;39397;53.204;5.778;2022-07-29T08:59:32;21.50;99.90
53520;DHT22;39397;53.204;5.778;2022-07-29T09:02:00;21.50;99.90
53520;DHT22;39397;53.204;5.778;2022-07-29T09:04:34;21.60;99.90
53520;DHT22;39397;53.204;5.778;2022-07-29T09:07:04;21.60;99.90
53520;DHT22;39397;53.204;5.778;2022-07-29T09:09:30;21.50;99.90
53520;DHT22;39397;53.204;5.778;2022-07-29T09:11:58;21.40;99.90
53520;DHT22;39397;53.204;5.778;2022-07-29T09:14:25;21.40;99.90
53520;DHT22;39397;53.204;5.778;2022-07-29T09:16:52;21.50;99.90
53520;DHT22;39397;53.204;5.778;2022-07-29T09:19:28;21.40;99.90
53520;DHT22;39397;53.204;5.778;2022-07-29T09:21:56;20.60;99.30
53520;DHT22;39397;53.204;5.778;2022-07-29T09:27:27;21.20;99.90
53520;DHT22;39397;53.204;5.778;2022-07-29T09:30:03;21.20;99.90
53520;DHT22;39397;53.204;5.778;2022-07-29T09:32:31;21.20;99.90
53520;DHT22;39397;53.204;5.778;2022-07-29T09:35:19;21.20;99.90
53520;DHT22;39397;53.204;5.778;2022-07-29T09:37:46;21.30;99.90
53520;DHT22;39397;53.204;5.778;2022-07-29T09:40:21;21.30;99.90
53520;DHT22;39397;53.204;5.778;2022-07-29T09:42:47;21.40;99.90
53520;DHT22;39397;53.204;5.778;2022-07-29T09:45:29;21.50;99.90
53520;DHT22;39397;53.204;5.778;2022-07-29T09:47:56;21.60;99.80
53520;DHT22;39397;53.204;5.778;2022-07-29T09:50:35;21.40;99.90
53520;DHT22;39397;53.204;5.778;2022-07-29T09:53:01;21.60;99.90
53520;DHT22;39397;53.204;5.778;2022-07-29T09:55:26;21.50;99.90
53520;DHT22;39397;53.204;5.778;2022-07-29T09:57:52;21.60;99.90
53520;DHT22;39397;53.204;5.778;2022-07-29T10:00:20;21.60;99.90
53520;DHT22;39397;53.204;5.778;2022-07-29T10:02:48;21.70;99.90
53520;DHT22;39397;53.204;5.778;2022-07-29T10:05:21;21.70;99.90
53520;DHT22;39397;53.204;5.778;2022-07-29T10:07:55;21.70;99.90
53520;DHT22;39397;53.204;5.778;2022-07-29T10:10:22;21.60;99.90
53520;DHT22;39397;53.204;5.778;2022-07-29T10:13:00;21.60;99.90
53520;DHT22;39397;53.204;5.778;2022-07-29T10:15:31;21.60;99.90
53520;DHT22;39397;53.204;5.778;2022-07-29T10:18:02;21.50;99.90
53520;DHT22;39397;53.204;5.778;2022-07-29T10:20:28;21.30;99.90
53520;DHT22;39397;53.204;5.778;2022-07-29T10:22:55;21.30;99.90
53520;DHT22;39397;53.204;5.778;2022-07-29T10:25:21;21.30;99.90
53520;DHT22;39397;53.204;5.778;2022-07-29T10:27:48;21.30;99.90
53520;DHT22;39397;53.204;5.778;2022-07-29T10:30:15;21.00;99.90
53520;DHT22;39397;53.204;5.778;2022-07-29T10:44:09;20.70;99.90
53520;DHT22;39397;53.204;5.778;2022-07-29T10:46:39;20.50;99.90
53520;DHT22;39397;53.204;5.778;2022-07-29T10:49:19;20.60;99.90
53520;DHT22;39397;53.204;5.778;2022-07-29T10:54:44;20.60;99.90
53520;DHT22;39397;53.204;5.778;2022-07-29T10:57:27;20.60;99.90
53520;DHT22;39397;53.204;5.778;2022-07-29T11:05:04;20.60;99.90
53520;DHT22;39397;53.204;5.778;2022-07-29T11:07:32;20.60;99.90
53520;DHT22;39397;53.204;5.778;2022-07-29T11:15:10;20.90;99.90
53520;DHT22;39397;53.204;5.778;2022-07-29T11:18:08;20.90;99.90
53520;DHT22;39397;53.204;5.778;2022-07-29T11:20:40;20.90;99.90
53520;DHT22;39397;53.204;5.778;2022-07-29T11:23:42;21.00;99.90
53520;DHT22;39397;53.204;5.778;2022-07-29T11:29:03;21.10;99.90
53520;DHT22;39397;53.204;5.778;2022-07-29T11:31:43;21.20;99.90
53520;DHT22;39397;53.204;5.778;2022-07-29T11:45:10;21.40;99.90
53520;DHT22;39397;53.204;5.778;2022-07-29T11:47:51;21.30;99.90
53520;DHT22;39397;53.204;5.778;2022-07-29T11:50:32;21.40;99.90
53520;DHT22;39397;53.204;5.778;2022-07-29T11:53:00;21.30;99.90
53520;DHT22;39397;53.204;5.778;2022-07-29T11:55:26;21.30;99.90
53520;DHT22;39397;53.204;5.778;2022-07-29T11:57:57;21.30;99.90
53520;DHT22;39397;53.204;5.778;2022-07-29T12:03:01;21.70;99.90
53520;DHT22;39397;53.204;5.778;2022-07-29T12:05:45;21.50;99.90
53520;DHT22;39397;53.204;5.778;2022-07-29T12:10:39;21.50;99.90
53520;DHT22;39397;53.204;5.778;2022-07-29T12:13:06;21.40;99.90
53520;DHT22;39397;53.204;5.778;2022-07-29T12:15:32;21.50;99.90
53520;DHT22;39397;53.204;5.778;2022-07-29T12:17:58;21.60;99.90
53520;DHT22;39397;53.204;5.778;2022-07-29T12:20:30;20.50;99.90
53520;DHT22;39397;53.204;5.778;2022-07-29T12:22:56;21.80;99.90
53520;DHT22;39397;53.204;5.778;2022-07-29T12:25:23;21.80;99.90
53520;DHT22;39397;53.204;5.778;2022-07-29T12:27:59;22.00;99.90
53520;DHT22;39397;53.204;5.778;2022-07-29T12:30:47;22.20;99.90
53520;DHT22;39397;53.204;5.778;2022-07-29T12:33:27;22.30;99.90
53520;DHT22;39397;53.204;5.778;2022-07-29T12:35:58;22.50;99.90
53520;DHT22;39397;53.204;5.778;2022-07-29T12:38:24;22.60;99.90
53520;DHT22;39397;53.204;5.778;2022-07-29T12:40:52;22.70;99.90
53520;DHT22;39397;53.204;5.778;2022-07-29T12:43:22;22.80;99.90
53520;DHT22;39397;53.204;5.778;2022-07-29T12:45:51;22.80;99.50
53520;DHT22;39397;53.204;5.778;2022-07-29T12:48:18;23.00;99.90
53520;DHT22;39397;53.204;5.778;2022-07-29T12:51:00;23.20;99.90
53520;DHT22;39397;53.204;5.778;2022-07-29T12:53:27;23.20;99.60
53520;DHT22;39397;53.204;5.778;2022-07-29T12:55:54;23.40;99.40
53520;DHT22;39397;53.204;5.778;2022-07-29T13:03:26;23.70;98.60
53520;DHT22;39397;53.204;5.778;2022-07-29T13:05:51;23.70;98.20
53520;DHT22;39397;53.204;5.778;2022-07-29T13:08:17;23.80;98.10
53520;DHT22;39397;53.204;5.778;2022-07-29T13:10:46;23.90;97.50
53520;DHT22;39397;53.204;5.778;2022-07-29T13:13:15;24.00;97.70
53520;DHT22;39397;53.204;5.778;2022-07-29T13:15:43;24.20;97.60
53520;DHT22;39397;53.204;5.778;2022-07-29T13:20:54;24.40;97.00
53520;DHT22;39397;53.204;5.778;2022-07-29T13:23:20;24.50;96.40
53520;DHT22;39397;53.204;5.778;2022-07-29T13:25:46;24.70;96.80
53520;DHT22;39397;53.204;5.778;2022-07-29T13:28:11;24.80;96.20
53520;DHT22;39397;53.204;5.778;2022-07-29T13:30:38;25.00;95.50
53520;DHT22;39397;53.204;5.778;2022-07-29T13:33:04;24.90;95.10
53520;DHT22;39397;53.204;5.778;2022-07-29T13:35:30;25.00;94.50
53520;DHT22;39397;53.204;5.778;2022-07-29T13:37:56;24.90;94.10
53520;DHT22;39397;53.204;5.778;2022-07-29T13:40:21;24.80;94.20
53520;DHT22;39397;53.204;5.778;2022-07-29T13:42:47;24.70;94.30
53520;DHT22;39397;53.204;5.778;2022-07-29T13:45:13;24.90;94.00
53520;DHT22;39397;53.204;5.778;2022-07-29T13:47:39;25.00;93.60
53520;DHT22;39397;53.204;5.778;2022-07-29T13:50:06;25.10;93.40
53520;DHT22;39397;53.204;5.778;2022-07-29T13:52:33;25.20;93.50
53520;DHT22;39397;53.204;5.778;2022-07-29T13:54:59;25.40;93.30
53520;DHT22;39397;53.204;5.778;2022-07-29T13:57:25;25.40;92.80
53520;DHT22;39397;53.204;5.778;2022-07-29T13:59:50;25.40;92.30
53520;DHT22;39397;53.204;5.778;2022-07-29T14:02:16;25.30;92.40
53520;DHT22;39397;53.204;5.778;2022-07-29T14:04:42;25.20;92.50
53520;DHT22;39397;53.204;5.778;2022-07-29T14:07:08;25.10;92.50
53520;DHT22;39397;53.204;5.778;2022-07-29T14:09:33;25.40;92.20
53520;DHT22;39397;53.204;5.778;2022-07-29T14:11:59;25.60;91.20
53520;DHT22;39397;53.204;5.778;2022-07-29T14:14:25;25.60;90.60
53520;DHT22;39397;53.204;5.778;2022-07-29T14:16:50;25.70;89.50
53520;DHT22;39397;53.204;5.778;2022-07-29T14:19:16;25.70;89.40
53520;DHT22;39397;53.204;5.778;2022-07-29T14:21:42;25.70;88.40
53520;DHT22;39397;53.204;5.778;2022-07-29T14:24:07;25.90;87.40
53520;DHT22;39397;53.204;5.778;2022-07-29T14:26:33;26.00;86.70
53520;DHT22;39397;53.204;5.778;2022-07-29T14:28:59;26.10;86.30
53520;DHT22;39397;53.204;5.778;2022-07-29T14:31:24;26.10;84.80
53520;DHT22;39397;53.204;5.778;2022-07-29T14:33:50;26.30;84.10
53520;DHT22;39397;53.204;5.778;2022-07-29T14:36:16;26.30;83.90
53520;DHT22;39397;53.204;5.778;2022-07-29T14:38:41;26.60;84.10
53520;DHT22;39397;53.204;5.778;2022-07-29T14:41:07;26.90;83.20
53520;DHT22;39397;53.204;5.778;2022-07-29T14:43:34;27.20;82.10
53520;DHT22;39397;53.204;5.778;2022-07-29T14:46:00;27.30;81.20
53520;DHT22;39397;53.204;5.778;2022-07-29T14:48:26;27.10;79.80
53520;DHT22;39397;53.204;5.778;2022-07-29T14:50:52;27.10;79.40
53520;DHT22;39397;53.204;5.778;2022-07-29T14:53:18;27.30;79.20
53520;DHT22;39397;53.204;5.778;2022-07-29T14:55:44;27.60;79.60
53520;DHT22;39397;53.204;5.778;2022-07-29T14:58:10;27.90;78.70
53520;DHT22;39397;53.204;5.778;2022-07-29T15:00:36;28.30;77.60
53520;DHT22;39397;53.204;5.778;2022-07-29T15:03:03;28.70;76.20
53520;DHT22;39397;53.204;5.778;2022-07-29T15:05:32;28.90;75.40
53520;DHT22;39397;53.204;5.778;2022-07-29T15:07:58;29.00;72.20
53520;DHT22;39397;53.204;5.778;2022-07-29T15:10:24;28.80;73.40
53520;DHT22;39397;53.204;5.778;2022-07-29T15:12:52;28.60;73.30
53520;DHT22;39397;53.204;5.778;2022-07-29T15:15:18;28.60;73.30
53520;DHT22;39397;53.204;5.778;2022-07-29T15:17:44;28.60;73.10
53520;DHT22;39397;53.204;5.778;2022-07-29T15:20:10;28.50;72.90
53520;DHT22;39397;53.204;5.778;2022-07-29T15:22:37;28.40;72.50
53520;DHT22;39397;53.204;5.778;2022-07-29T15:25:04;28.20;72.60
53520;DHT22;39397;53.204;5.778;2022-07-29T15:27:30;28.20;72.20
53520;DHT22;39397;53.204;5.778;2022-07-29T15:29:56;27.90;72.70
53520;DHT22;39397;53.204;5.778;2022-07-29T15:32:22;27.80;73.60
53520;DHT22;39397;53.204;5.778;2022-07-29T15:34:48;28.00;73.30
53520;DHT22;39397;53.204;5.778;2022-07-29T15:37:14;28.00;72.70
53520;DHT22;39397;53.204;5.778;2022-07-29T15:39:39;28.00;72.80
53520;DHT22;39397;53.204;5.778;2022-07-29T15:42:05;28.20;72.60
53520;DHT22;39397;53.204;5.778;2022-07-29T15:44:31;28.20;72.30
53520;DHT22;39397;53.204;5.778;2022-07-29T15:46:57;28.00;72.50
53520;DHT22;39397;53.204;5.778;2022-07-29T15:49:37;28.00;72.30
53520;DHT22;39397;53.204;5.778;2022-07-29T15:52:05;27.90;71.70
53520;DHT22;39397;53.204;5.778;2022-07-29T15:54:35;26.00;70.70
53520;DHT22;39397;53.204;5.778;2022-07-29T15:57:02;27.50;72.10
53520;DHT22;39397;53.204;5.778;2022-07-29T15:59:28;27.60;72.00
53520;DHT22;39397;53.204;5.778;2022-07-29T16:01:55;27.70;72.50
53520;DHT22;39397;53.204;5.778;2022-07-29T16:04:21;27.90;73.00
53520;DHT22;39397;53.204;5.778;2022-07-29T16:06:47;28.30;72.50
53520;DHT22;39397;53.204;5.778;2022-07-29T16:09:14;28.90;71.70
53520;DHT22;39397;53.204;5.778;2022-07-29T16:11:40;29.60;70.80
53520;DHT22;39397;53.204;5.778;2022-07-29T16:14:06;30.20;69.40
53520;DHT22;39397;53.204;5.778;2022-07-29T16:16:32;30.60;68.30
53520;DHT22;39397;53.204;5.778;2022-07-29T16:18:58;31.10;68.70
53520;DHT22;39397;53.204;5.778;2022-07-29T16:21:24;31.40;66.80
53520;DHT22;39397;53.204;5.778;2022-07-29T16:23:50;31.70;66.20
53520;DHT22;39397;53.204;5.778;2022-07-29T16:26:16;31.90;64.80
53520;DHT22;39397;53.204;5.778;2022-07-29T16:28:42;32.10;63.70
53520;DHT22;39397;53.204;5.778;2022-07-29T16:31:07;32.20;62.20
53520;DHT22;39397;53.204;5.778;2022-07-29T16:33:33;32.00;61.60
53520;DHT22;39397;53.204;5.778;2022-07-29T16:35:59;32.00;60.80
53520;DHT22;39397;53.204;5.778;2022-07-29T16:38:25;32.30;61.50
53520;DHT22;39397;53.204;5.778;2022-07-29T16:40:51;32.50;60.50
53520;DHT22;39397;53.204;5.778;2022-07-29T16:43:17;32.60;59.60
53520;DHT22;39397;53.204;5.778;2022-07-29T16:45:43;32.70;60.90